sensor_id;sensor_type;location;lat;lon;timestamp;temperature;humidity
5520;DHT22;2782;52.362;10.012;2024-01-30T00:00:54;18.80;55.00
5520;DHT22;2782;52.362;10.012;2024-01-30T00:01:56;18.80;55.00
5520;DHT22;2782;52.362;10.012;2024-01-30T00:02:57;18.80;55.00
5520;DHT22;2782;52.362;10.012;2024-01-30T00:03:58;18.80;55.00
5520;DHT22;2782;52.362;10.012;2024-01-30T00:04:59;18.80;55.00
5520;DHT22;2782;52.362;10.012;2024-01-30T00:05:59;18.80;55.00
5520;DHT22;2782;52.362;10.012;2024-01-30T00:07:01;18.80;55.00
5520;DHT22;2782;52.362;10.012;2024-01-30T00:08:02;18.80;54.90
5520;DHT22;2782;52.362;10.012;2024-01-30T00:09:03;18.80;54.90
5520;DHT22;2782;52.362;10.012;2024-01-30T00:10:05;18.80;55.00
5520;DHT22;2782;52.362;10.012;2024-01-30T00:11:07;18.80;54.90
5520;DHT22;2782;52.362;10.012;2024-01-30T00:12:08;18.80;54.90
5520;DHT22;2782;52.362;10.012;2024-01-30T00:13:10;18.80;54.90
5520;DHT22;2782;52.362;10.012;2024-01-30T00:14:12;18.80;54.90
5520;DHT22;2782;52.362;10.012;2024-01-30T00:15:13;18.70;54.90
5520;DHT22;2782;52.362;10.012;2024-01-30T00:16:21;18.80;55.00
5520;DHT22;2782;52.362;10.012;2024-01-30T00:17:22;18.70;54.90
5520;DHT22;2782;52.362;10.012;2024-01-30T00:18:25;18.70;54.90
5520;DHT22;2782;52.362;10.012;2024-01-30T00:19:26;18.70;54.90
5520;DHT22;2782;52.362;10.012;2024-01-30T00:20:27;18.70;54.90
5520;DHT22;2782;52.362;10.012;2024-01-30T00:21:28;18.70;54.90
5520;DHT22;2782;52.362;10.012;2024-01-30T00:22:29;18.70;54.90
5520;DHT22;2782;52.362;10.012;2024-01-30T00:23:30;18.70;54.90
5520;DHT22;2782;52.362;10.012;2024-01-30T00:24:32;18.70;54.90
5520;DHT22;2782;52.362;10.012;2024-01-30T00:25:33;18.70;55.00
5520;DHT22;2782;52.362;10.012;2024-01-30T00:26:35;18.70;54.90
5520;DHT22;2782;52.362;10.012;2024-01-30T00:27:35;18.70;54.90
5520;DHT22;2782;52.362;10.012;2024-01-30T00:28:38;18.70;54.90
5520;DHT22;2782;52.362;10.012;2024-01-30T00:29:39;18.70;54.90
5520;DHT22;2782;52.362;10.012;2024-01-30T00:30:40;18.70;54.90
5520;DHT22;2782;52.362;10.012;2024-01-30T00:31:41;18.70;54.90
5520;DHT22;2782;52.362;10.012;2024-01-30T00:32:43;18.70;54.90
5520;DHT22;2782;52.362;10.012;2024-01-30T00:33:43;18.70;54.90
5520;DHT22;2782;52.362;10.012;2024-01-30T00:34:45;18.60;54.80
5520;DHT22;2782;52.362;10.012;2024-01-30T00:35:45;18.60;54.80
5520;DHT22;2782;52.362;10.012;2024-01-30T00:36:47;18.60;54.80
5520;DHT22;2782;52.362;10.012;2024-01-30T00:37:48;18.60;54.80
5520;DHT22;2782;52.362;10.012;2024-01-30T00:38:48;18.60;54.80
5520;DHT22;2782;52.362;10.012;2024-01-30T00:39:50;18.60;54.80
5520;DHT22;2782;52.362;10.012;2024-01-30T00:40:51;18.60;54.80
5520;DHT22;2782;52.362;10.012;2024-01-30T00:41:52;18.60;54.80
5520;DHT22;2782;52.362;10.012;2024-01-30T00:42:53;18.60;54.80
5520;DHT22;2782;52.362;10.012;2024-01-30T00:43:56;18.60;54.80
5520;DHT22;2782;52.362;10.012;2024-01-30T00:44:56;18.60;54.80
5520;DHT22;2782;52.362;10.012;2024-01-30T00:45:58;18.60;54.90
5520;DHT22;2782;52.362;10.012;2024-01-30T00:46:59;18.60;54.80
5520;DHT22;2782;52.362;10.012;2024-01-30T00:48:00;18.60;55.40
5520;DHT22;2782;52.362;10.012;2024-01-30T00:49:01;18.60;54.80
5520;DHT22;2782;52.362;10.012;2024-01-30T00:50:03;18.60;54.80
5520;DHT22;2782;52.362;10.012;2024-01-30T00:51:04;18.60;54.80
5520;DHT22;2782;52.362;10.012;2024-01-30T00:52:05;18.60;54.80
5520;DHT22;2782;52.362;10.012;2024-01-30T00:53:06;18.60;54.80
5520;DHT22;2782;52.362;10.012;2024-01-30T00:54:08;18.60;54.80
5520;DHT22;2782;52.362;10.012;2024-01-30T00:55:09;18.60;54.90
5520;DHT22;2782;52.362;10.012;2024-01-30T00:56:10;18.50;54.80
5520;DHT22;2782;52.362;10.012;2024-01-30T00:57:11;18.50;54.80
5520;DHT22;2782;52.362;10.012;2024-01-30T00:58:12;18.50;54.80
5520;DHT22;2782;52.362;10.012;2024-01-30T00:59:14;18.50;54.80
5520;DHT22;2782;52.362;10.012;2024-01-30T01:00:16;18.50;54.80
5520;DHT22;2782;52.362;10.012;2024-01-30T01:01:17;18.50;54.80
5520;DHT22;2782;52.362;10.012;2024-01-30T01:02:19;18.50;54.80
5520;DHT22;2782;52.362;10.012;2024-01-30T01:03:19;18.50;54.80
5520;DHT22;2782;52.362;10.012;2024-01-30T01:04:22;18.50;54.80
5520;DHT22;2782;52.362;10.012;2024-01-30T01:05:22;18.50;54.80
5520;DHT22;2782;52.362;10.012;2024-01-30T01:06:24;18.50;54.80
5520;DHT22;2782;52.362;10.012;2024-01-30T01:07:25;18.50;54.80
5520;DHT22;2782;52.362;10.012;2024-01-30T01:08:26;18.50;54.80
5520;DHT22;2782;52.362;10.012;2024-01-30T01:09:27;18.50;54.80
5520;DHT22;2782;52.362;10.012;2024-01-30T01:10:28;18.50;54.80
5520;DHT22;2782;52.362;10.012;2024-01-30T01:11:29;18.50;54.80
5520;DHT22;2782;52.362;10.012;2024-01-30T01:12:31;18.50;54.80
5520;DHT22;2782;52.362;10.012;2024-01-30T01:13:32;18.50;54.80
5520;DHT22;2782;52.362;10.012;2024-01-30T01:14:35;18.40;54.70
5520;DHT22;2782;52.362;10.012;2024-01-30T01:15:36;18.40;54.80
5520;DHT22;2782;52.362;10.012;2024-01-30T01:16:38;18.40;54.70
5520;DHT22;2782;52.362;10.012;2024-01-30T01:17:39;18.40;54.70
5520;DHT22;2782;52.362;10.012;2024-01-30T01:18:40;18.40;54.70
5520;DHT22;2782;52.362;10.012;2024-01-30T01:19:42;18.40;54.70
5520;DHT22;2782;52.362;10.012;2024-01-30T01:20:42;18.40;54.80
5520;DHT22;2782;52.362;10.012;2024-01-30T01:21:44;18.40;54.70
5520;DHT22;2782;52.362;10.012;2024-01-30T01:22:45;18.40;54.70
5520;DHT22;2782;52.362;10.012;2024-01-30T01:23:46;18.40;54.80
5520;DHT22;2782;52.362;10.012;2024-01-30T01:24:47;18.40;54.80
5520;DHT22;2782;52.362;10.012;2024-01-30T01:25:49;18.40;54.80
5520;DHT22;2782;52.362;10.012;2024-01-30T01:26:49;18.40;54.90
5520;DHT22;2782;52.362;10.012;2024-01-30T01:27:51;18.40;54.80
5520;DHT22;2782;52.362;10.012;2024-01-30T01:28:53;18.40;54.90
5520;DHT22;2782;52.362;10.012;2024-01-30T01:29:55;18.40;54.80
5520;DHT22;2782;52.362;10.012;2024-01-30T01:30:56;18.40;54.90
5520;DHT22;2782;52.362;10.012;2024-01-30T01:32:05;18.40;54.90
5520;DHT22;2782;52.362;10.012;2024-01-30T01:33:06;18.40;54.90
5520;DHT22;2782;52.362;10.012;2024-01-30T01:34:07;18.40;54.90
5520;DHT22;2782;52.362;10.012;2024-01-30T01:35:08;18.40;54.90
5520;DHT22;2782;52.362;10.012;2024-01-30T01:36:09;18.40;54.90
5520;DHT22;2782;52.362;10.012;2024-01-30T01:37:10;18.40;54.90
5520;DHT22;2782;52.362;10.012;2024-01-30T01:38:12;18.40;54.90
5520;DHT22;2782;52.362;10.012;2024-01-30T01:39:12;18.40;54.90
5520;DHT22;2782;52.362;10.012;2024-01-30T01:40:14;18.30;54.80
5520;DHT22;2782;52.362;10.012;2024-01-30T01:41:15;18.40;54.90
5520;DHT22;2782;52.362;10.012;2024-01-30T01:42:16;18.40;54.90
5520;DHT22;2782;52.362;10.012;2024-01-30T01:43:17;18.30;54.80
5520;DHT22;2782;52.362;10.012;2024-01-30T01:44:19;18.30;54.80
5520;DHT22;2782;52.362;10.012;2024-01-30T01:45:21;18.40;54.90
5520;DHT22;2782;52.362;10.012;2024-01-30T01:46:23;18.30;54.80
5520;DHT22;2782;52.362;10.012;2024-01-30T01:47:24;18.30;54.80
5520;DHT22;2782;52.362;10.012;2024-01-30T01:48:26;18.30;54.80
5520;DHT22;2782;52.362;10.012;2024-01-30T01:49:27;18.30;54.80
5520;DHT22;2782;52.362;10.012;2024-01-30T01:50:30;18.30;54.80
5520;DHT22;2782;52.362;10.012;2024-01-30T01:51:33;18.30;54.80
5520;DHT22;2782;52.362;10.012;2024-01-30T01:52:35;18.30;54.80
5520;DHT22;2782;52.362;10.012;2024-01-30T01:53:36;18.30;54.80
5520;DHT22;2782;52.362;10.012;2024-01-30T01:54:38;18.30;54.80
5520;DHT22;2782;52.362;10.012;2024-01-30T01:55:39;18.30;54.80
5520;DHT22;2782;52.362;10.012;2024-01-30T01:56:41;18.30;54.80
5520;DHT22;2782;52.362;10.012;2024-01-30T01:57:43;18.30;54.80
5520;DHT22;2782;52.362;10.012;2024-01-30T01:58:45;18.30;54.80
5520;DHT22;2782;52.362;10.012;2024-01-30T01:59:47;18.30;54.80
5520;DHT22;2782;52.362;10.012;2024-01-30T02:00:50;18.30;54.80
5520;DHT22;2782;52.362;10.012;2024-01-30T02:01:54;18.30;54.80
5520;DHT22;2782;52.362;10.012;2024-01-30T02:02:56;18.30;54.80
5520;DHT22;2782;52.362;10.012;2024-01-30T02:03:58;18.30;54.80
5520;DHT22;2782;52.362;10.012;2024-01-30T02:04:59;18.30;54.80
5520;DHT22;2782;52.362;10.012;2024-01-30T02:06:01;18.30;54.80
5520;DHT22;2782;52.362;10.012;2024-01-30T02:07:03;18.30;54.90
5520;DHT22;2782;52.362;10.012;2024-01-30T02:08:05;18.20;54.70
5520;DHT22;2782;52.362;10.012;2024-01-30T02:09:06;18.30;54.80
5520;DHT22;2782;52.362;10.012;2024-01-30T02:10:09;18.20;54.80
5520;DHT22;2782;52.362;10.012;2024-01-30T02:11:10;18.20;54.80
5520;DHT22;2782;52.362;10.012;2024-01-30T02:12:12;18.20;54.80
5520;DHT22;2782;52.362;10.012;2024-01-30T02:13:13;18.20;54.70
5520;DHT22;2782;52.362;10.012;2024-01-30T02:14:14;18.20;54.80
5520;DHT22;2782;52.362;10.012;2024-01-30T02:15:15;18.20;54.70
5520;DHT22;2782;52.362;10.012;2024-01-30T02:16:18;18.20;54.70
5520;DHT22;2782;52.362;10.012;2024-01-30T02:17:18;18.20;54.70
5520;DHT22;2782;52.362;10.012;2024-01-30T02:18:20;18.20;54.70
5520;DHT22;2782;52.362;10.012;2024-01-30T02:19:21;18.20;54.80
5520;DHT22;2782;52.362;10.012;2024-01-30T02:20:24;18.20;54.80
5520;DHT22;2782;52.362;10.012;2024-01-30T02:21:27;18.20;54.80
5520;DHT22;2782;52.362;10.012;2024-01-30T02:22:28;18.20;54.80
5520;DHT22;2782;52.362;10.012;2024-01-30T02:23:31;18.20;54.80
5520;DHT22;2782;52.362;10.012;2024-01-30T02:24:32;18.20;54.80
5520;DHT22;2782;52.362;10.012;2024-01-30T02:25:38;18.20;54.80
5520;DHT22;2782;52.362;10.012;2024-01-30T02:26:39;18.20;54.80
5520;DHT22;2782;52.362;10.012;2024-01-30T02:27:40;18.20;54.80
5520;DHT22;2782;52.362;10.012;2024-01-30T02:28:41;18.20;54.80
5520;DHT22;2782;52.362;10.012;2024-01-30T02:29:43;18.20;54.80
5520;DHT22;2782;52.362;10.012;2024-01-30T02:30:43;18.10;54.70
5520;DHT22;2782;52.362;10.012;2024-01-30T02:31:44;18.10;54.70
5520;DHT22;2782;52.362;10.012;2024-01-30T02:32:46;18.10;54.70
5520;DHT22;2782;52.362;10.012;2024-01-30T02:33:46;18.10;54.70
5520;DHT22;2782;52.362;10.012;2024-01-30T02:34:47;18.10;54.70
5520;DHT22;2782;52.362;10.012;2024-01-30T02:35:49;18.10;54.70
5520;DHT22;2782;52.362;10.012;2024-01-30T02:36:51;18.10;54.70
5520;DHT22;2782;52.362;10.012;2024-01-30T02:37:51;18.10;54.70
5520;DHT22;2782;52.362;10.012;2024-01-30T02:38:53;18.10;54.70
5520;DHT22;2782;52.362;10.012;2024-01-30T02:39:53;18.10;54.70
5520;DHT22;2782;52.362;10.012;2024-01-30T02:40:56;18.10;54.70
5520;DHT22;2782;52.362;10.012;2024-01-30T02:41:57;18.10;54.70
5520;DHT22;2782;52.362;10.012;2024-01-30T02:42:59;18.10;54.70
5520;DHT22;2782;52.362;10.012;2024-01-30T02:44:00;18.10;54.70
5520;DHT22;2782;52.362;10.012;2024-01-30T02:45:02;18.10;54.70
5520;DHT22;2782;52.362;10.012;2024-01-30T02:46:03;18.10;54.70
5520;DHT22;2782;52.362;10.012;2024-01-30T02:47:05;18.10;54.70
5520;DHT22;2782;52.362;10.012;2024-01-30T02:48:06;18.10;54.70
5520;DHT22;2782;52.362;10.012;2024-01-30T02:49:08;18.10;54.70
5520;DHT22;2782;52.362;10.012;2024-01-30T02:50:09;18.10;54.70
5520;DHT22;2782;52.362;10.012;2024-01-30T02:51:10;18.10;54.70
5520;DHT22;2782;52.362;10.012;2024-01-30T02:52:13;18.10;54.70
5520;DHT22;2782;52.362;10.012;2024-01-30T02:53:15;18.10;54.70
5520;DHT22;2782;52.362;10.012;2024-01-30T02:54:15;18.10;54.70
5520;DHT22;2782;52.362;10.012;2024-01-30T02:55:17;18.10;54.70
5520;DHT22;2782;52.362;10.012;2024-01-30T02:56:18;18.10;54.70
5520;DHT22;2782;52.362;10.012;2024-01-30T02:57:19;18.10;54.70
5520;DHT22;2782;52.362;10.012;2024-01-30T02:58:20;18.00;54.60
5520;DHT22;2782;52.362;10.012;2024-01-30T02:59:22;18.10;54.70
5520;DHT22;2782;52.362;10.012;2024-01-30T03:00:23;18.10;54.70
5520;DHT22;2782;52.362;10.012;2024-01-30T03:01:25;18.00;54.60
5520;DHT22;2782;52.362;10.012;2024-01-30T03:02:25;18.00;54.60
5520;DHT22;2782;52.362;10.012;2024-01-30T03:03:27;18.00;54.60
5520;DHT22;2782;52.362;10.012;2024-01-30T03:04:27;18.00;54.60
5520;DHT22;2782;52.362;10.012;2024-01-30T03:05:30;18.00;54.70
5520;DHT22;2782;52.362;10.012;2024-01-30T03:06:31;18.00;54.70
5520;DHT22;2782;52.362;10.012;2024-01-30T03:07:34;18.00;54.60
5520;DHT22;2782;52.362;10.012;2024-01-30T03:08:34;18.00;54.60
5520;DHT22;2782;52.362;10.012;2024-01-30T03:09:36;18.00;54.60
5520;DHT22;2782;52.362;10.012;2024-01-30T03:10:37;18.00;54.60
5520;DHT22;2782;52.362;10.012;2024-01-30T03:11:38;18.00;54.70
5520;DHT22;2782;52.362;10.012;2024-01-30T03:12:39;18.00;54.60
5520;DHT22;2782;52.362;10.012;2024-01-30T03:13:41;18.00;54.60
5520;DHT22;2782;52.362;10.012;2024-01-30T03:14:41;18.00;54.70
5520;DHT22;2782;52.362;10.012;2024-01-30T03:15:43;18.00;54.70
5520;DHT22;2782;52.362;10.012;2024-01-30T03:16:43;18.00;54.70
5520;DHT22;2782;52.362;10.012;2024-01-30T03:17:45;18.00;54.60
5520;DHT22;2782;52.362;10.012;2024-01-30T03:18:46;18.00;54.70
5520;DHT22;2782;52.362;10.012;2024-01-30T03:19:48;18.00;54.70
5520;DHT22;2782;52.362;10.012;2024-01-30T03:20:49;18.00;54.60
5520;DHT22;2782;52.362;10.012;2024-01-30T03:21:51;18.00;54.60
5520;DHT22;2782;52.362;10.012;2024-01-30T03:22:54;18.00;54.60
5520;DHT22;2782;52.362;10.012;2024-01-30T03:23:56;18.00;54.70
5520;DHT22;2782;52.362;10.012;2024-01-30T03:24:56;18.00;54.60
5520;DHT22;2782;52.362;10.012;2024-01-30T03:25:58;18.00;54.70
5520;DHT22;2782;52.362;10.012;2024-01-30T03:26:59;18.00;54.70
5520;DHT22;2782;52.362;10.012;2024-01-30T03:28:00;18.00;54.70
5520;DHT22;2782;52.362;10.012;2024-01-30T03:29:01;17.90;54.60
5520;DHT22;2782;52.362;10.012;2024-01-30T03:30:04;17.90;54.60
5520;DHT22;2782;52.362;10.012;2024-01-30T03:31:04;17.90;54.60
5520;DHT22;2782;52.362;10.012;2024-01-30T03:32:06;18.00;55.20
5520;DHT22;2782;52.362;10.012;2024-01-30T03:33:07;17.90;54.60
5520;DHT22;2782;52.362;10.012;2024-01-30T03:34:07;17.90;54.60
5520;DHT22;2782;52.362;10.012;2024-01-30T03:35:11;17.90;54.60
5520;DHT22;2782;52.362;10.012;2024-01-30T03:36:12;17.90;54.60
5520;DHT22;2782;52.362;10.012;2024-01-30T03:37:14;18.00;54.70
5520;DHT22;2782;52.362;10.012;2024-01-30T03:38:16;17.90;54.60
5520;DHT22;2782;52.362;10.012;2024-01-30T03:39:17;17.90;54.60
5520;DHT22;2782;52.362;10.012;2024-01-30T03:40:18;17.90;54.60
5520;DHT22;2782;52.362;10.012;2024-01-30T03:41:19;17.90;54.60
5520;DHT22;2782;52.362;10.012;2024-01-30T03:42:20;17.90;54.60
5520;DHT22;2782;52.362;10.012;2024-01-30T03:43:22;17.90;54.60
5520;DHT22;2782;52.362;10.012;2024-01-30T03:44:23;17.90;54.60
5520;DHT22;2782;52.362;10.012;2024-01-30T03:45:24;17.90;54.60
5520;DHT22;2782;52.362;10.012;2024-01-30T03:46:25;17.90;54.60
5520;DHT22;2782;52.362;10.012;2024-01-30T03:47:27;17.90;54.60
5520;DHT22;2782;52.362;10.012;2024-01-30T03:48:28;17.90;54.60
5520;DHT22;2782;52.362;10.012;2024-01-30T03:49:29;17.90;54.60
5520;DHT22;2782;52.362;10.012;2024-01-30T03:50:30;17.90;54.60
5520;DHT22;2782;52.362;10.012;2024-01-30T03:51:31;17.90;54.60
5520;DHT22;2782;52.362;10.012;2024-01-30T03:52:34;17.90;54.60
5520;DHT22;2782;52.362;10.012;2024-01-30T03:53:36;17.90;54.60
5520;DHT22;2782;52.362;10.012;2024-01-30T03:54:37;17.90;54.60
5520;DHT22;2782;52.362;10.012;2024-01-30T03:55:38;17.90;54.60
5520;DHT22;2782;52.362;10.012;2024-01-30T03:56:39;17.90;54.60
5520;DHT22;2782;52.362;10.012;2024-01-30T03:57:40;17.90;54.60
5520;DHT22;2782;52.362;10.012;2024-01-30T03:58:42;17.90;54.60
5520;DHT22;2782;52.362;10.012;2024-01-30T03:59:42;17.90;54.60
5520;DHT22;2782;52.362;10.012;2024-01-30T04:00:44;17.90;54.60
5520;DHT22;2782;52.362;10.012;2024-01-30T04:01:46;17.90;54.60
5520;DHT22;2782;52.362;10.012;2024-01-30T04:02:48;17.90;54.60
5520;DHT22;2782;52.362;10.012;2024-01-30T04:03:48;17.90;54.60
5520;DHT22;2782;52.362;10.012;2024-01-30T04:04:50;17.90;54.60
5520;DHT22;2782;52.362;10.012;2024-01-30T04:05:51;17.90;54.60
5520;DHT22;2782;52.362;10.012;2024-01-30T04:06:53;17.90;55.10
5520;DHT22;2782;52.362;10.012;2024-01-30T04:07:53;17.90;54.60
5520;DHT22;2782;52.362;10.012;2024-01-30T04:08:56;17.80;54.50
5520;DHT22;2782;52.362;10.012;2024-01-30T04:09:57;17.80;54.50
5520;DHT22;2782;52.362;10.012;2024-01-30T04:10:58;17.80;54.50
5520;DHT22;2782;52.362;10.012;2024-01-30T04:11:59;17.80;54.50
5520;DHT22;2782;52.362;10.012;2024-01-30T04:13:03;17.80;54.50
5520;DHT22;2782;52.362;10.012;2024-01-30T04:14:04;17.80;54.50
5520;DHT22;2782;52.362;10.012;2024-01-30T04:15:06;17.80;54.50
5520;DHT22;2782;52.362;10.012;2024-01-30T04:16:07;17.80;54.50
5520;DHT22;2782;52.362;10.012;2024-01-30T04:17:08;17.80;54.50
5520;DHT22;2782;52.362;10.012;2024-01-30T04:18:09;17.80;54.50
5520;DHT22;2782;52.362;10.012;2024-01-30T04:19:09;17.80;54.50
5520;DHT22;2782;52.362;10.012;2024-01-30T04:20:13;17.80;54.50
5520;DHT22;2782;52.362;10.012;2024-01-30T04:21:14;17.80;54.50
5520;DHT22;2782;52.362;10.012;2024-01-30T04:22:16;17.80;54.50
5520;DHT22;2782;52.362;10.012;2024-01-30T04:23:17;17.80;54.60
5520;DHT22;2782;52.362;10.012;2024-01-30T04:24:19;17.80;54.50
5520;DHT22;2782;52.362;10.012;2024-01-30T04:25:20;17.80;54.60
5520;DHT22;2782;52.362;10.012;2024-01-30T04:26:22;17.80;54.60
5520;DHT22;2782;52.362;10.012;2024-01-30T04:27:23;17.80;54.60
5520;DHT22;2782;52.362;10.012;2024-01-30T04:28:24;17.80;54.50
5520;DHT22;2782;52.362;10.012;2024-01-30T04:29:25;17.80;54.60
5520;DHT22;2782;52.362;10.012;2024-01-30T04:30:26;17.80;54.60
5520;DHT22;2782;52.362;10.012;2024-01-30T04:31:27;17.80;54.60
5520;DHT22;2782;52.362;10.012;2024-01-30T04:32:28;17.80;54.60
5520;DHT22;2782;52.362;10.012;2024-01-30T04:33:29;17.80;54.60
5520;DHT22;2782;52.362;10.012;2024-01-30T04:34:30;17.80;54.70
5520;DHT22;2782;52.362;10.012;2024-01-30T04:35:31;17.80;54.70
5520;DHT22;2782;52.362;10.012;2024-01-30T04:36:33;17.80;54.70
5520;DHT22;2782;52.362;10.012;2024-01-30T04:37:34;17.80;54.70
5520;DHT22;2782;52.362;10.012;2024-01-30T04:38:35;17.80;54.70
5520;DHT22;2782;52.362;10.012;2024-01-30T04:39:38;17.80;54.70
5520;DHT22;2782;52.362;10.012;2024-01-30T04:40:38;17.80;54.70
5520;DHT22;2782;52.362;10.012;2024-01-30T04:41:40;17.80;54.70
5520;DHT22;2782;52.362;10.012;2024-01-30T04:42:41;17.80;54.70
5520;DHT22;2782;52.362;10.012;2024-01-30T04:43:42;17.80;54.80
5520;DHT22;2782;52.362;10.012;2024-01-30T04:44:44;17.80;54.80
5520;DHT22;2782;52.362;10.012;2024-01-30T04:45:46;17.80;54.70
5520;DHT22;2782;52.362;10.012;2024-01-30T04:46:46;17.80;54.70
5520;DHT22;2782;52.362;10.012;2024-01-30T04:47:48;17.90;54.80
5520;DHT22;2782;52.362;10.012;2024-01-30T04:48:48;17.80;54.70
5520;DHT22;2782;52.362;10.012;2024-01-30T04:49:51;17.90;54.80
5520;DHT22;2782;52.362;10.012;2024-01-30T04:50:52;17.80;54.70
5520;DHT22;2782;52.362;10.012;2024-01-30T04:51:53;17.80;54.70
5520;DHT22;2782;52.362;10.012;2024-01-30T04:52:54;17.80;54.70
5520;DHT22;2782;52.362;10.012;2024-01-30T04:53:56;17.80;54.70
5520;DHT22;2782;52.362;10.012;2024-01-30T04:54:58;17.90;54.80
5520;DHT22;2782;52.362;10.012;2024-01-30T04:56:00;17.90;54.80
5520;DHT22;2782;52.362;10.012;2024-01-30T04:57:00;17.80;54.70
5520;DHT22;2782;52.362;10.012;2024-01-30T04:58:02;17.90;54.70
5520;DHT22;2782;52.362;10.012;2024-01-30T04:59:03;17.90;54.80
5520;DHT22;2782;52.362;10.012;2024-01-30T05:00:06;17.90;54.80
5520;DHT22;2782;52.362;10.012;2024-01-30T05:01:06;17.90;54.80
5520;DHT22;2782;52.362;10.012;2024-01-30T05:02:08;17.90;54.70
5520;DHT22;2782;52.362;10.012;2024-01-30T05:03:09;17.80;54.60
5520;DHT22;2782;52.362;10.012;2024-01-30T05:04:10;17.90;54.70
5520;DHT22;2782;52.362;10.012;2024-01-30T05:05:11;17.80;54.70
5520;DHT22;2782;52.362;10.012;2024-01-30T05:06:12;17.90;54.70
5520;DHT22;2782;52.362;10.012;2024-01-30T05:07:13;17.90;54.70
5520;DHT22;2782;52.362;10.012;2024-01-30T05:08:14;17.80;54.60
5520;DHT22;2782;52.362;10.012;2024-01-30T05:09:15;17.90;54.80
5520;DHT22;2782;52.362;10.012;2024-01-30T05:10:17;17.90;54.80
5520;DHT22;2782;52.362;10.012;2024-01-30T05:11:18;17.90;54.80
5520;DHT22;2782;52.362;10.012;2024-01-30T05:12:19;17.90;54.80
5520;DHT22;2782;52.362;10.012;2024-01-30T05:13:20;17.90;54.80
5520;DHT22;2782;52.362;10.012;2024-01-30T05:14:21;17.90;54.70
5520;DHT22;2782;52.362;10.012;2024-01-30T05:15:23;17.90;54.70
5520;DHT22;2782;52.362;10.012;2024-01-30T05:16:23;17.90;54.70
5520;DHT22;2782;52.362;10.012;2024-01-30T05:17:25;17.90;54.70
5520;DHT22;2782;52.362;10.012;2024-01-30T05:18:26;17.90;54.70
5520;DHT22;2782;52.362;10.012;2024-01-30T05:19:27;17.90;54.60
5520;DHT22;2782;52.362;10.012;2024-01-30T05:20:28;17.90;54.60
5520;DHT22;2782;52.362;10.012;2024-01-30T05:21:30;17.90;54.60
5520;DHT22;2782;52.362;10.012;2024-01-30T05:22:30;17.90;54.60
5520;DHT22;2782;52.362;10.012;2024-01-30T05:23:32;17.90;54.60
5520;DHT22;2782;52.362;10.012;2024-01-30T05:24:33;17.90;54.60
5520;DHT22;2782;52.362;10.012;2024-01-30T05:25:36;18.00;54.60
5520;DHT22;2782;52.362;10.012;2024-01-30T05:26:36;17.90;54.60
5520;DHT22;2782;52.362;10.012;2024-01-30T05:27:38;18.00;54.60
5520;DHT22;2782;52.362;10.012;2024-01-30T05:28:38;18.00;54.60
5520;DHT22;2782;52.362;10.012;2024-01-30T05:29:41;18.00;54.60
5520;DHT22;2782;52.362;10.012;2024-01-30T05:30:42;18.00;54.60
5520;DHT22;2782;52.362;10.012;2024-01-30T05:31:43;18.00;54.60
5520;DHT22;2782;52.362;10.012;2024-01-30T05:32:44;18.00;54.60
5520;DHT22;2782;52.362;10.012;2024-01-30T05:33:46;18.00;54.60
5520;DHT22;2782;52.362;10.012;2024-01-30T05:34:47;18.00;54.60
5520;DHT22;2782;52.362;10.012;2024-01-30T05:35:50;18.00;54.50
5520;DHT22;2782;52.362;10.012;2024-01-30T05:36:54;18.10;54.70
5520;DHT22;2782;52.362;10.012;2024-01-30T05:37:56;18.10;54.60
5520;DHT22;2782;52.362;10.012;2024-01-30T05:38:56;18.10;54.60
5520;DHT22;2782;52.362;10.012;2024-01-30T05:39:58;18.10;54.60
5520;DHT22;2782;52.362;10.012;2024-01-30T05:41:00;18.10;54.60
5520;DHT22;2782;52.362;10.012;2024-01-30T05:42:02;18.10;54.60
5520;DHT22;2782;52.362;10.012;2024-01-30T05:43:03;18.10;54.60
5520;DHT22;2782;52.362;10.012;2024-01-30T05:44:04;18.10;54.50
5520;DHT22;2782;52.362;10.012;2024-01-30T05:45:05;18.10;54.50
5520;DHT22;2782;52.362;10.012;2024-01-30T05:46:08;18.10;54.50
5520;DHT22;2782;52.362;10.012;2024-01-30T05:47:09;18.10;54.50
5520;DHT22;2782;52.362;10.012;2024-01-30T05:48:10;18.10;54.50
5520;DHT22;2782;52.362;10.012;2024-01-30T05:49:11;18.10;54.50
5520;DHT22;2782;52.362;10.012;2024-01-30T05:50:12;18.10;54.50
5520;DHT22;2782;52.362;10.012;2024-01-30T05:51:13;18.10;54.50
5520;DHT22;2782;52.362;10.012;2024-01-30T05:52:15;18.10;54.40
5520;DHT22;2782;52.362;10.012;2024-01-30T05:53:16;18.10;54.40
5520;DHT22;2782;52.362;10.012;2024-01-30T05:54:18;18.20;54.50
5520;DHT22;2782;52.362;10.012;2024-01-30T05:55:19;18.20;54.40
5520;DHT22;2782;52.362;10.012;2024-01-30T05:56:22;18.20;54.40
5520;DHT22;2782;52.362;10.012;2024-01-30T05:57:22;18.20;54.40
5520;DHT22;2782;52.362;10.012;2024-01-30T05:58:24;18.20;54.40
5520;DHT22;2782;52.362;10.012;2024-01-30T05:59:24;18.20;54.40
5520;DHT22;2782;52.362;10.012;2024-01-30T06:00:27;18.20;54.40
5520;DHT22;2782;52.362;10.012;2024-01-30T06:01:27;18.20;54.40
5520;DHT22;2782;52.362;10.012;2024-01-30T06:02:29;18.20;54.40
5520;DHT22;2782;52.362;10.012;2024-01-30T06:03:30;18.20;54.50
5520;DHT22;2782;52.362;10.012;2024-01-30T06:04:31;18.20;54.70
5520;DHT22;2782;52.362;10.012;2024-01-30T06:05:32;18.20;55.00
5520;DHT22;2782;52.362;10.012;2024-01-30T06:06:33;18.20;55.30
5520;DHT22;2782;52.362;10.012;2024-01-30T06:07:34;18.20;55.60
5520;DHT22;2782;52.362;10.012;2024-01-30T06:08:35;18.20;56.00
5520;DHT22;2782;52.362;10.012;2024-01-30T06:09:36;18.20;56.00
5520;DHT22;2782;52.362;10.012;2024-01-30T06:10:39;18.20;56.20
5520;DHT22;2782;52.362;10.012;2024-01-30T06:11:42;18.20;56.50
5520;DHT22;2782;52.362;10.012;2024-01-30T06:12:43;18.20;56.70
5520;DHT22;2782;52.362;10.012;2024-01-30T06:13:44;18.20;56.70
5520;DHT22;2782;52.362;10.012;2024-01-30T06:14:46;18.20;56.90
5520;DHT22;2782;52.362;10.012;2024-01-30T06:15:46;18.20;57.10
5520;DHT22;2782;52.362;10.012;2024-01-30T06:16:48;18.20;58.10
5520;DHT22;2782;52.362;10.012;2024-01-30T06:17:49;18.30;57.60
5520;DHT22;2782;52.362;10.012;2024-01-30T06:18:50;18.20;57.60
5520;DHT22;2782;52.362;10.012;2024-01-30T06:19:51;18.20;58.30
5520;DHT22;2782;52.362;10.012;2024-01-30T06:20:53;18.30;57.80
5520;DHT22;2782;52.362;10.012;2024-01-30T06:21:53;18.30;57.80
5520;DHT22;2782;52.362;10.012;2024-01-30T06:22:55;18.30;57.80
5520;DHT22;2782;52.362;10.012;2024-01-30T06:23:55;18.30;57.70
5520;DHT22;2782;52.362;10.012;2024-01-30T06:24:57;18.30;57.80
5520;DHT22;2782;52.362;10.012;2024-01-30T06:25:57;18.30;57.90
5520;DHT22;2782;52.362;10.012;2024-01-30T06:27:00;18.30;58.00
5520;DHT22;2782;52.362;10.012;2024-01-30T06:28:01;18.30;58.30
5520;DHT22;2782;52.362;10.012;2024-01-30T06:29:03;18.30;58.10
5520;DHT22;2782;52.362;10.012;2024-01-30T06:30:04;18.30;58.30
5520;DHT22;2782;52.362;10.012;2024-01-30T06:31:05;18.30;58.20
5520;DHT22;2782;52.362;10.012;2024-01-30T06:32:07;18.30;58.30
5520;DHT22;2782;52.362;10.012;2024-01-30T06:33:08;18.30;58.10
5520;DHT22;2782;52.362;10.012;2024-01-30T06:34:09;18.30;57.90